sensor_id;sensor_type;location;lat;lon;timestamp;P1;durP1;ratioP1;P2;durP2;ratioP2
64061;SDS011;50308;47.438;-1.528;2024-01-15T00:02:04;24.08;;;15.80;;
64061;SDS011;50308;47.438;-1.528;2024-01-15T00:04:31;21.90;;;13.13;;
64061;SDS011;50308;47.438;-1.528;2024-01-15T00:07:01;21.70;;;14.23;;
64061;SDS011;50308;47.438;-1.528;2024-01-15T00:09:27;26.05;;;15.57;;
64061;SDS011;50308;47.438;-1.528;2024-01-15T00:11:52;22.73;;;13.57;;
64061;SDS011;50308;47.438;-1.528;2024-01-15T00:14:18;21.45;;;13.63;;
64061;SDS011;50308;47.438;-1.528;2024-01-15T00:16:45;23.10;;;13.77;;
64061;SDS011;50308;47.438;-1.528;2024-01-15T00:19:11;24.52;;;14.88;;
64061;SDS011;50308;47.438;-1.528;2024-01-15T00:21:36;22.40;;;14.00;;
64061;SDS011;50308;47.438;-1.528;2024-01-15T00:24:02;24.30;;;14.68;;
64061;SDS011;50308;47.438;-1.528;2024-01-15T00:26:28;22.35;;;14.25;;
64061;SDS011;50308;47.438;-1.528;2024-01-15T00:28:54;23.60;;;15.68;;
64061;SDS011;50308;47.438;-1.528;2024-01-15T00:31:19;22.23;;;13.95;;
64061;SDS011;50308;47.438;-1.528;2024-01-15T00:33:45;26.20;;;14.18;;
64061;SDS011;50308;47.438;-1.528;2024-01-15T00:36:11;24.52;;;13.43;;
64061;SDS011;50308;47.438;-1.528;2024-01-15T00:38:36;22.35;;;13.80;;
64061;SDS011;50308;47.438;-1.528;2024-01-15T00:41:02;22.98;;;14.43;;
64061;SDS011;50308;47.438;-1.528;2024-01-15T00:43:28;22.20;;;13.82;;
64061;SDS011;50308;47.438;-1.528;2024-01-15T00:45:54;24.75;;;14.55;;
64061;SDS011;50308;47.438;-1.528;2024-01-15T00:48:19;22.33;;;14.27;;
64061;SDS011;50308;47.438;-1.528;2024-01-15T00:50:45;22.80;;;13.65;;
64061;SDS011;50308;47.438;-1.528;2024-01-15T00:53:11;22.30;;;13.57;;
64061;SDS011;50308;47.438;-1.528;2024-01-15T00:55:37;21.80;;;14.05;;
64061;SDS011;50308;47.438;-1.528;2024-01-15T00:58:03;22.40;;;13.90;;
64061;SDS011;50308;47.438;-1.528;2024-01-15T01:00:28;24.90;;;14.55;;
64061;SDS011;50308;47.438;-1.528;2024-01-15T01:02:54;21.52;;;13.60;;
64061;SDS011;50308;47.438;-1.528;2024-01-15T01:05:20;23.70;;;14.00;;
64061;SDS011;50308;47.438;-1.528;2024-01-15T01:07:46;21.45;;;14.05;;
64061;SDS011;50308;47.438;-1.528;2024-01-15T01:10:11;25.23;;;14.27;;
64061;SDS011;50308;47.438;-1.528;2024-01-15T01:12:37;19.63;;;13.85;;
64061;SDS011;50308;47.438;-1.528;2024-01-15T01:15:03;25.17;;;14.75;;
64061;SDS011;50308;47.438;-1.528;2024-01-15T01:17:29;23.65;;;14.00;;
64061;SDS011;50308;47.438;-1.528;2024-01-15T01:19:55;23.25;;;13.93;;
64061;SDS011;50308;47.438;-1.528;2024-01-15T01:22:21;23.45;;;14.13;;
64061;SDS011;50308;47.438;-1.528;2024-01-15T01:24:47;22.77;;;14.10;;
64061;SDS011;50308;47.438;-1.528;2024-01-15T01:27:12;24.40;;;15.23;;
64061;SDS011;50308;47.438;-1.528;2024-01-15T01:29:38;23.58;;;14.73;;
64061;SDS011;50308;47.438;-1.528;2024-01-15T01:32:04;21.08;;;13.85;;
64061;SDS011;50308;47.438;-1.528;2024-01-15T01:34:32;21.83;;;14.35;;
64061;SDS011;50308;47.438;-1.528;2024-01-15T01:37:06;24.63;;;14.85;;
64061;SDS011;50308;47.438;-1.528;2024-01-15T01:39:32;25.23;;;14.80;;
64061;SDS011;50308;47.438;-1.528;2024-01-15T01:41:57;21.20;;;13.50;;
64061;SDS011;50308;47.438;-1.528;2024-01-15T01:44:23;21.17;;;13.80;;
64061;SDS011;50308;47.438;-1.528;2024-01-15T01:46:49;21.40;;;13.70;;
64061;SDS011;50308;47.438;-1.528;2024-01-15T01:49:15;20.30;;;13.40;;
64061;SDS011;50308;47.438;-1.528;2024-01-15T01:51:41;19.75;;;12.98;;
64061;SDS011;50308;47.438;-1.528;2024-01-15T01:54:07;22.20;;;13.52;;
64061;SDS011;50308;47.438;-1.528;2024-01-15T01:56:34;21.42;;;13.55;;
64061;SDS011;50308;47.438;-1.528;2024-01-15T01:59:01;19.67;;;13.20;;
64061;SDS011;50308;47.438;-1.528;2024-01-15T02:01:28;25.30;;;14.93;;
64061;SDS011;50308;47.438;-1.528;2024-01-15T02:03:54;18.50;;;12.65;;
64061;SDS011;50308;47.438;-1.528;2024-01-15T02:06:21;20.75;;;13.30;;
64061;SDS011;50308;47.438;-1.528;2024-01-15T02:08:48;20.77;;;13.02;;
64061;SDS011;50308;47.438;-1.528;2024-01-15T02:11:14;21.08;;;12.88;;
64061;SDS011;50308;47.438;-1.528;2024-01-15T02:13:40;22.08;;;13.60;;
64061;SDS011;50308;47.438;-1.528;2024-01-15T02:16:06;22.42;;;13.20;;
64061;SDS011;50308;47.438;-1.528;2024-01-15T02:18:44;20.95;;;13.32;;
64061;SDS011;50308;47.438;-1.528;2024-01-15T02:21:11;19.60;;;13.48;;
64061;SDS011;50308;47.438;-1.528;2024-01-15T02:23:37;21.50;;;13.65;;
64061;SDS011;50308;47.438;-1.528;2024-01-15T02:26:03;21.05;;;12.82;;
64061;SDS011;50308;47.438;-1.528;2024-01-15T02:28:30;21.02;;;14.10;;
64061;SDS011;50308;47.438;-1.528;2024-01-15T02:30:57;18.08;;;12.35;;
64061;SDS011;50308;47.438;-1.528;2024-01-15T02:33:22;21.73;;;13.25;;
64061;SDS011;50308;47.438;-1.528;2024-01-15T02:35:48;19.90;;;13.00;;
64061;SDS011;50308;47.438;-1.528;2024-01-15T02:38:15;20.13;;;13.90;;
64061;SDS011;50308;47.438;-1.528;2024-01-15T02:40:41;21.80;;;13.20;;
64061;SDS011;50308;47.438;-1.528;2024-01-15T02:43:10;20.38;;;13.52;;
64061;SDS011;50308;47.438;-1.528;2024-01-15T02:45:36;19.20;;;12.50;;
64061;SDS011;50308;47.438;-1.528;2024-01-15T02:48:01;21.80;;;13.25;;
64061;SDS011;50308;47.438;-1.528;2024-01-15T02:50:27;20.50;;;12.60;;
64061;SDS011;50308;47.438;-1.528;2024-01-15T02:52:53;20.33;;;12.45;;
64061;SDS011;50308;47.438;-1.528;2024-01-15T02:55:19;21.65;;;12.75;;
64061;SDS011;50308;47.438;-1.528;2024-01-15T02:57:44;20.40;;;13.00;;
64061;SDS011;50308;47.438;-1.528;2024-01-15T03:00:10;19.90;;;12.73;;
64061;SDS011;50308;47.438;-1.528;2024-01-15T03:02:37;22.50;;;13.43;;
64061;SDS011;50308;47.438;-1.528;2024-01-15T03:05:05;20.13;;;12.43;;
64061;SDS011;50308;47.438;-1.528;2024-01-15T03:07:31;20.98;;;12.82;;
64061;SDS011;50308;47.438;-1.528;2024-01-15T03:09:57;21.58;;;13.23;;
64061;SDS011;50308;47.438;-1.528;2024-01-15T03:12:23;18.63;;;12.05;;
64061;SDS011;50308;47.438;-1.528;2024-01-15T03:14:48;20.40;;;12.18;;
64061;SDS011;50308;47.438;-1.528;2024-01-15T03:17:14;19.35;;;12.40;;
64061;SDS011;50308;47.438;-1.528;2024-01-15T03:19:39;20.88;;;13.15;;
64061;SDS011;50308;47.438;-1.528;2024-01-15T03:22:05;23.48;;;13.20;;
64061;SDS011;50308;47.438;-1.528;2024-01-15T03:24:33;19.92;;;13.10;;
64061;SDS011;50308;47.438;-1.528;2024-01-15T03:26:59;20.48;;;12.13;;
64061;SDS011;50308;47.438;-1.528;2024-01-15T03:29:25;19.08;;;11.57;;
64061;SDS011;50308;47.438;-1.528;2024-01-15T03:31:51;20.05;;;12.32;;
64061;SDS011;50308;47.438;-1.528;2024-01-15T03:34:17;18.73;;;11.00;;
64061;SDS011;50308;47.438;-1.528;2024-01-15T03:36:43;18.00;;;11.90;;
64061;SDS011;50308;47.438;-1.528;2024-01-15T03:39:08;18.00;;;11.63;;
64061;SDS011;50308;47.438;-1.528;2024-01-15T03:41:34;17.95;;;11.20;;
64061;SDS011;50308;47.438;-1.528;2024-01-15T03:44:00;19.55;;;12.02;;
64061;SDS011;50308;47.438;-1.528;2024-01-15T03:46:26;18.10;;;11.52;;
64061;SDS011;50308;47.438;-1.528;2024-01-15T03:48:52;18.85;;;11.65;;
64061;SDS011;50308;47.438;-1.528;2024-01-15T03:51:18;19.23;;;12.23;;
64061;SDS011;50308;47.438;-1.528;2024-01-15T03:53:44;18.85;;;12.10;;
64061;SDS011;50308;47.438;-1.528;2024-01-15T03:56:09;18.35;;;11.02;;
64061;SDS011;50308;47.438;-1.528;2024-01-15T03:58:35;15.73;;;10.70;;
64061;SDS011;50308;47.438;-1.528;2024-01-15T04:01:01;17.20;;;10.85;;
64061;SDS011;50308;47.438;-1.528;2024-01-15T04:03:27;16.40;;;10.63;;
64061;SDS011;50308;47.438;-1.528;2024-01-15T04:05:52;17.92;;;11.45;;
64061;SDS011;50308;47.438;-1.528;2024-01-15T04:08:18;18.13;;;10.65;;
64061;SDS011;50308;47.438;-1.528;2024-01-15T04:10:43;17.33;;;10.82;;
64061;SDS011;50308;47.438;-1.528;2024-01-15T04:13:09;18.08;;;11.10;;
64061;SDS011;50308;47.438;-1.528;2024-01-15T04:15:35;16.10;;;11.00;;
64061;SDS011;50308;47.438;-1.528;2024-01-15T04:18:02;16.88;;;10.90;;
64061;SDS011;50308;47.438;-1.528;2024-01-15T04:20:28;16.38;;;10.45;;
64061;SDS011;50308;47.438;-1.528;2024-01-15T04:22:53;17.67;;;10.60;;
64061;SDS011;50308;47.438;-1.528;2024-01-15T04:25:19;18.63;;;11.00;;
64061;SDS011;50308;47.438;-1.528;2024-01-15T04:27:45;17.60;;;11.27;;
64061;SDS011;50308;47.438;-1.528;2024-01-15T04:30:11;16.55;;;10.82;;
64061;SDS011;50308;47.438;-1.528;2024-01-15T04:32:36;15.95;;;10.10;;
64061;SDS011;50308;47.438;-1.528;2024-01-15T04:35:02;17.63;;;10.65;;
64061;SDS011;50308;47.438;-1.528;2024-01-15T04:37:28;15.60;;;10.98;;
64061;SDS011;50308;47.438;-1.528;2024-01-15T04:39:54;16.85;;;10.95;;
64061;SDS011;50308;47.438;-1.528;2024-01-15T04:42:23;16.33;;;10.85;;
64061;SDS011;50308;47.438;-1.528;2024-01-15T04:44:49;17.58;;;10.98;;
64061;SDS011;50308;47.438;-1.528;2024-01-15T04:47:15;16.55;;;10.20;;
64061;SDS011;50308;47.438;-1.528;2024-01-15T04:49:40;17.45;;;11.27;;
64061;SDS011;50308;47.438;-1.528;2024-01-15T04:52:06;19.20;;;11.48;;
64061;SDS011;50308;47.438;-1.528;2024-01-15T04:54:32;17.25;;;10.90;;
64061;SDS011;50308;47.438;-1.528;2024-01-15T04:56:57;15.68;;;10.88;;
64061;SDS011;50308;47.438;-1.528;2024-01-15T04:59:23;17.85;;;11.45;;
64061;SDS011;50308;47.438;-1.528;2024-01-15T05:01:49;18.13;;;10.77;;
64061;SDS011;50308;47.438;-1.528;2024-01-15T05:04:14;17.67;;;11.35;;
64061;SDS011;50308;47.438;-1.528;2024-01-15T05:06:40;19.48;;;11.35;;
64061;SDS011;50308;47.438;-1.528;2024-01-15T05:09:06;15.85;;;10.27;;
64061;SDS011;50308;47.438;-1.528;2024-01-15T05:11:32;16.77;;;10.23;;
64061;SDS011;50308;47.438;-1.528;2024-01-15T05:13:58;15.65;;;10.00;;
64061;SDS011;50308;47.438;-1.528;2024-01-15T05:16:23;16.60;;;11.02;;
64061;SDS011;50308;47.438;-1.528;2024-01-15T05:18:49;15.55;;;10.65;;
64061;SDS011;50308;47.438;-1.528;2024-01-15T05:21:15;14.60;;;9.65;;
64061;SDS011;50308;47.438;-1.528;2024-01-15T05:23:41;14.65;;;9.75;;
64061;SDS011;50308;47.438;-1.528;2024-01-15T05:26:06;17.95;;;10.10;;
64061;SDS011;50308;47.438;-1.528;2024-01-15T05:28:34;15.65;;;9.73;;
64061;SDS011;50308;47.438;-1.528;2024-01-15T05:30:59;15.32;;;9.77;;
64061;SDS011;50308;47.438;-1.528;2024-01-15T05:33:25;14.48;;;9.80;;
64061;SDS011;50308;47.438;-1.528;2024-01-15T05:35:51;15.18;;;9.68;;
64061;SDS011;50308;47.438;-1.528;2024-01-15T05:38:17;14.70;;;10.40;;
64061;SDS011;50308;47.438;-1.528;2024-01-15T05:40:42;12.77;;;8.73;;
64061;SDS011;50308;47.438;-1.528;2024-01-15T05:43:08;14.80;;;9.88;;
64061;SDS011;50308;47.438;-1.528;2024-01-15T05:45:34;13.75;;;8.80;;
64061;SDS011;50308;47.438;-1.528;2024-01-15T05:48:01;14.15;;;8.63;;
64061;SDS011;50308;47.438;-1.528;2024-01-15T05:50:26;15.07;;;9.43;;
64061;SDS011;50308;47.438;-1.528;2024-01-15T05:52:52;14.18;;;8.80;;
64061;SDS011;50308;47.438;-1.528;2024-01-15T05:55:18;14.70;;;9.32;;
64061;SDS011;50308;47.438;-1.528;2024-01-15T05:57:44;12.90;;;8.05;;
64061;SDS011;50308;47.438;-1.528;2024-01-15T06:00:10;12.35;;;8.35;;
64061;SDS011;50308;47.438;-1.528;2024-01-15T06:02:39;13.80;;;8.32;;
64061;SDS011;50308;47.438;-1.528;2024-01-15T06:05:05;11.48;;;8.00;;
64061;SDS011;50308;47.438;-1.528;2024-01-15T06:07:31;11.93;;;8.20;;
64061;SDS011;50308;47.438;-1.528;2024-01-15T06:09:58;13.13;;;7.97;;
64061;SDS011;50308;47.438;-1.528;2024-01-15T06:12:24;11.65;;;7.95;;
64061;SDS011;50308;47.438;-1.528;2024-01-15T06:14:50;11.80;;;7.85;;
64061;SDS011;50308;47.438;-1.528;2024-01-15T06:17:15;11.68;;;8.05;;
64061;SDS011;50308;47.438;-1.528;2024-01-15T06:19:41;11.63;;;8.05;;
64061;SDS011;50308;47.438;-1.528;2024-01-15T06:22:07;11.43;;;7.15;;
64061;SDS011;50308;47.438;-1.528;2024-01-15T06:24:32;10.20;;;7.88;;
64061;SDS011;50308;47.438;-1.528;2024-01-15T06:26:58;12.38;;;8.30;;
64061;SDS011;50308;47.438;-1.528;2024-01-15T06:29:25;10.80;;;8.23;;
64061;SDS011;50308;47.438;-1.528;2024-01-15T06:31:52;11.38;;;7.47;;
64061;SDS011;50308;47.438;-1.528;2024-01-15T06:34:18;10.30;;;7.40;;
64061;SDS011;50308;47.438;-1.528;2024-01-15T06:36:43;11.90;;;7.82;;
64061;SDS011;50308;47.438;-1.528;2024-01-15T06:39:09;14.90;;;9.68;;
64061;SDS011;50308;47.438;-1.528;2024-01-15T06:41:35;10.82;;;8.07;;
64061;SDS011;50308;47.438;-1.528;2024-01-15T06:44:11;11.75;;;8.68;;
64061;SDS011;50308;47.438;-1.528;2024-01-15T06:46:43;12.45;;;8.88;;
64061;SDS011;50308;47.438;-1.528;2024-01-15T06:49:09;14.77;;;8.77;;
64061;SDS011;50308;47.438;-1.528;2024-01-15T06:51:36;13.05;;;8.27;;
64061;SDS011;50308;47.438;-1.528;2024-01-15T06:54:02;11.68;;;8.40;;
64061;SDS011;50308;47.438;-1.528;2024-01-15T06:56:28;12.70;;;8.38;;
64061;SDS011;50308;47.438;-1.528;2024-01-15T06:58:53;12.82;;;8.38;;
64061;SDS011;50308;47.438;-1.528;2024-01-15T07:01:19;11.98;;;8.43;;
64061;SDS011;50308;47.438;-1.528;2024-01-15T07:03:45;11.55;;;8.10;;
64061;SDS011;50308;47.438;-1.528;2024-01-15T07:06:11;12.48;;;7.53;;
64061;SDS011;50308;47.438;-1.528;2024-01-15T07:08:37;13.77;;;8.85;;
64061;SDS011;50308;47.438;-1.528;2024-01-15T07:11:04;12.40;;;8.27;;
64061;SDS011;50308;47.438;-1.528;2024-01-15T07:13:30;13.05;;;8.20;;
64061;SDS011;50308;47.438;-1.528;2024-01-15T07:15:56;12.85;;;8.88;;
64061;SDS011;50308;47.438;-1.528;2024-01-15T07:18:22;12.13;;;8.25;;
64061;SDS011;50308;47.438;-1.528;2024-01-15T07:20:48;12.95;;;8.40;;
64061;SDS011;50308;47.438;-1.528;2024-01-15T07:23:14;11.40;;;8.40;;
64061;SDS011;50308;47.438;-1.528;2024-01-15T07:25:40;14.10;;;9.73;;
64061;SDS011;50308;47.438;-1.528;2024-01-15T07:28:06;17.10;;;10.40;;
64061;SDS011;50308;47.438;-1.528;2024-01-15T07:30:31;14.60;;;10.18;;
64061;SDS011;50308;47.438;-1.528;2024-01-15T07:32:57;14.02;;;9.77;;
64061;SDS011;50308;47.438;-1.528;2024-01-15T07:35:23;13.98;;;9.20;;
64061;SDS011;50308;47.438;-1.528;2024-01-15T07:37:48;13.07;;;8.98;;
64061;SDS011;50308;47.438;-1.528;2024-01-15T07:40:14;14.13;;;9.30;;
64061;SDS011;50308;47.438;-1.528;2024-01-15T07:42:40;13.48;;;9.52;;
64061;SDS011;50308;47.438;-1.528;2024-01-15T07:45:07;12.63;;;8.85;;
64061;SDS011;50308;47.438;-1.528;2024-01-15T07:47:34;13.90;;;9.65;;
64061;SDS011;50308;47.438;-1.528;2024-01-15T07:49:59;13.60;;;9.43;;
64061;SDS011;50308;47.438;-1.528;2024-01-15T07:52:25;14.77;;;9.50;;
64061;SDS011;50308;47.438;-1.528;2024-01-15T07:54:51;12.90;;;9.15;;
64061;SDS011;50308;47.438;-1.528;2024-01-15T07:57:16;13.20;;;8.75;;
64061;SDS011;50308;47.438;-1.528;2024-01-15T07:59:42;15.18;;;9.70;;
64061;SDS011;50308;47.438;-1.528;2024-01-15T08:02:08;13.60;;;9.35;;
64061;SDS011;50308;47.438;-1.528;2024-01-15T08:04:33;14.45;;;9.88;;
64061;SDS011;50308;47.438;-1.528;2024-01-15T08:06:59;14.90;;;10.50;;
64061;SDS011;50308;47.438;-1.528;2024-01-15T08:09:25;14.80;;;9.10;;
64061;SDS011;50308;47.438;-1.528;2024-01-15T08:11:50;14.30;;;9.50;;
64061;SDS011;50308;47.438;-1.528;2024-01-15T08:14:17;15.32;;;9.60;;
64061;SDS011;50308;47.438;-1.528;2024-01-15T08:16:43;13.15;;;9.27;;
64061;SDS011;50308;47.438;-1.528;2024-01-15T08:19:08;13.52;;;9.68;;
64061;SDS011;50308;47.438;-1.528;2024-01-15T08:21:34;14.88;;;10.05;;
64061;SDS011;50308;47.438;-1.528;2024-01-15T08:24:00;15.07;;;10.00;;
64061;SDS011;50308;47.438;-1.528;2024-01-15T08:26:30;15.13;;;9.82;;
64061;SDS011;50308;47.438;-1.528;2024-01-15T08:28:57;13.77;;;9.23;;
64061;SDS011;50308;47.438;-1.528;2024-01-15T08:31:23;12.70;;;9.25;;
64061;SDS011;50308;47.438;-1.528;2024-01-15T08:33:49;15.93;;;9.98;;
64061;SDS011;50308;47.438;-1.528;2024-01-15T08:36:15;13.52;;;9.25;;
64061;SDS011;50308;47.438;-1.528;2024-01-15T08:38:40;16.33;;;10.13;;
64061;SDS011;50308;47.438;-1.528;2024-01-15T08:41:06;14.23;;;9.27;;
64061;SDS011;50308;47.438;-1.528;2024-01-15T08:43:33;17.70;;;9.93;;
64061;SDS011;50308;47.438;-1.528;2024-01-15T08:45:59;16.30;;;10.35;;
64061;SDS011;50308;47.438;-1.528;2024-01-15T08:48:25;15.13;;;10.45;;
64061;SDS011;50308;47.438;-1.528;2024-01-15T08:50:52;15.93;;;10.07;;
64061;SDS011;50308;47.438;-1.528;2024-01-15T08:53:19;17.42;;;10.70;;
64061;SDS011;50308;47.438;-1.528;2024-01-15T08:55:45;15.15;;;10.20;;
64061;SDS011;50308;47.438;-1.528;2024-01-15T08:58:11;14.88;;;10.43;;
64061;SDS011;50308;47.438;-1.528;2024-01-15T09:00:37;16.02;;;10.32;;
64061;SDS011;50308;47.438;-1.528;2024-01-15T09:03:03;13.50;;;9.75;;
64061;SDS011;50308;47.438;-1.528;2024-01-15T09:05:28;17.33;;;11.32;;
64061;SDS011;50308;47.438;-1.528;2024-01-15T09:07:54;14.80;;;10.00;;
64061;SDS011;50308;47.438;-1.528;2024-01-15T09:10:20;14.93;;;10.10;;
64061;SDS011;50308;47.438;-1.528;2024-01-15T09:12:46;14.38;;;10.20;;
64061;SDS011;50308;47.438;-1.528;2024-01-15T09:15:14;15.52;;;9.98;;
64061;SDS011;50308;47.438;-1.528;2024-01-15T09:17:39;16.38;;;10.40;;
64061;SDS011;50308;47.438;-1.528;2024-01-15T09:20:05;15.30;;;10.13;;
64061;SDS011;50308;47.438;-1.528;2024-01-15T09:22:32;15.45;;;9.48;;
64061;SDS011;50308;47.438;-1.528;2024-01-15T09:24:58;16.48;;;10.93;;
64061;SDS011;50308;47.438;-1.528;2024-01-15T09:27:24;14.82;;;10.10;;
64061;SDS011;50308;47.438;-1.528;2024-01-15T09:29:52;16.00;;;10.50;;
64061;SDS011;50308;47.438;-1.528;2024-01-15T09:32:18;14.50;;;10.32;;
64061;SDS011;50308;47.438;-1.528;2024-01-15T09:34:45;14.45;;;9.68;;
64061;SDS011;50308;47.438;-1.528;2024-01-15T09:37:11;16.10;;;10.48;;
64061;SDS011;50308;47.438;-1.528;2024-01-15T09:39:39;15.63;;;10.45;;
64061;SDS011;50308;47.438;-1.528;2024-01-15T09:42:05;15.27;;;10.02;;
64061;SDS011;50308;47.438;-1.528;2024-01-15T09:44:31;14.60;;;9.63;;
64061;SDS011;50308;47.438;-1.528;2024-01-15T09:46:57;14.90;;;10.48;;
64061;SDS011;50308;47.438;-1.528;2024-01-15T09:49:23;13.82;;;9.57;;
64061;SDS011;50308;47.438;-1.528;2024-01-15T09:51:49;13.60;;;8.93;;
64061;SDS011;50308;47.438;-1.528;2024-01-15T09:54:18;13.73;;;9.27;;
64061;SDS011;50308;47.438;-1.528;2024-01-15T09:56:47;13.20;;;9.23;;
64061;SDS011;50308;47.438;-1.528;2024-01-15T09:59:14;11.77;;;8.63;;
64061;SDS011;50308;47.438;-1.528;2024-01-15T10:01:44;14.30;;;9.13;;
64061;SDS011;50308;47.438;-1.528;2024-01-15T10:04:14;14.02;;;9.13;;
64061;SDS011;50308;47.438;-1.528;2024-01-15T10:06:49;13.15;;;9.25;;
64061;SDS011;50308;47.438;-1.528;2024-01-15T10:09:17;13.95;;;8.90;;
64061;SDS011;50308;47.438;-1.528;2024-01-15T10:11:43;12.82;;;8.77;;
64061;SDS011;50308;47.438;-1.528;2024-01-15T10:14:12;12.38;;;8.43;;
64061;SDS011;50308;47.438;-1.528;2024-01-15T10:16:38;11.20;;;8.15;;
64061;SDS011;50308;47.438;-1.528;2024-01-15T10:19:07;11.88;;;8.00;;
64061;SDS011;50308;47.438;-1.528;2024-01-15T10:21:34;12.07;;;8.15;;
64061;SDS011;50308;47.438;-1.528;2024-01-15T10:24:00;12.27;;;8.25;;
64061;SDS011;50308;47.438;-1.528;2024-01-15T10:26:27;12.93;;;8.75;;
64061;SDS011;50308;47.438;-1.528;2024-01-15T10:28:53;11.70;;;7.93;;
64061;SDS011;50308;47.438;-1.528;2024-01-15T10:31:19;11.23;;;8.07;;
64061;SDS011;50308;47.438;-1.528;2024-01-15T10:33:46;13.75;;;8.73;;
64061;SDS011;50308;47.438;-1.528;2024-01-15T10:36:15;12.48;;;8.10;;
64061;SDS011;50308;47.438;-1.528;2024-01-15T10:38:45;11.88;;;7.88;;
64061;SDS011;50308;47.438;-1.528;2024-01-15T10:41:11;12.30;;;8.27;;
64061;SDS011;50308;47.438;-1.528;2024-01-15T10:43:38;12.27;;;8.15;;
64061;SDS011;50308;47.438;-1.528;2024-01-15T10:46:06;12.30;;;8.18;;
64061;SDS011;50308;47.438;-1.528;2024-01-15T10:48:32;12.23;;;7.90;;
64061;SDS011;50308;47.438;-1.528;2024-01-15T10:51:00;10.88;;;7.97;;
64061;SDS011;50308;47.438;-1.528;2024-01-15T10:53:28;11.52;;;7.72;;
64061;SDS011;50308;47.438;-1.528;2024-01-15T10:55:56;13.15;;;8.13;;
64061;SDS011;50308;47.438;-1.528;2024-01-15T10:58:23;11.82;;;7.32;;
64061;SDS011;50308;47.438;-1.528;2024-01-15T11:00:52;12.43;;;8.05;;
64061;SDS011;50308;47.438;-1.528;2024-01-15T11:03:19;12.18;;;8.23;;
64061;SDS011;50308;47.438;-1.528;2024-01-15T11:05:45;11.80;;;8.23;;
64061;SDS011;50308;47.438;-1.528;2024-01-15T11:08:11;13.27;;;8.13;;
64061;SDS011;50308;47.438;-1.528;2024-01-15T11:10:43;11.57;;;8.48;;
64061;SDS011;50308;47.438;-1.528;2024-01-15T11:13:15;10.68;;;7.53;;
64061;SDS011;50308;47.438;-1.528;2024-01-15T11:16:01;9.70;;;7.53;;
64061;SDS011;50308;47.438;-1.528;2024-01-15T11:18:35;11.35;;;7.47;;
64061;SDS011;50308;47.438;-1.528;2024-01-15T11:28:53;11.48;;;7.70;;
64061;SDS011;50308;47.438;-1.528;2024-01-15T11:31:20;12.02;;;7.78;;
64061;SDS011;50308;47.438;-1.528;2024-01-15T11:33:50;13.43;;;8.02;;
64061;SDS011;50308;47.438;-1.528;2024-01-15T11:36:16;9.52;;;7.03;;
64061;SDS011;50308;47.438;-1.528;2024-01-15T11:38:42;11.43;;;8.07;;
64061;SDS011;50308;47.438;-1.528;2024-01-15T11:41:14;10.55;;;7.10;;
64061;SDS011;50308;47.438;-1.528;2024-01-15T11:43:43;13.18;;;10.57;;
64061;SDS011;50308;47.438;-1.528;2024-01-15T11:46:12;11.65;;;7.95;;
64061;SDS011;50308;47.438;-1.528;2024-01-15T11:48:46;10.27;;;8.07;;
64061;SDS011;50308;47.438;-1.528;2024-01-15T11:51:24;12.50;;;8.40;;
64061;SDS011;50308;47.438;-1.528;2024-01-15T11:53:49;13.60;;;8.02;;
64061;SDS011;50308;47.438;-1.528;2024-01-15T11:56:20;13.27;;;8.50;;
64061;SDS011;50308;47.438;-1.528;2024-01-15T11:58:48;12.00;;;8.05;;
64061;SDS011;50308;47.438;-1.528;2024-01-15T12:01:15;11.80;;;8.23;;
64061;SDS011;50308;47.438;-1.528;2024-01-15T12:03:42;10.68;;;8.35;;
64061;SDS011;50308;47.438;-1.528;2024-01-15T12:06:09;12.63;;;9.40;;
64061;SDS011;50308;47.438;-1.528;2024-01-15T12:08:37;14.65;;;9.63;;
64061;SDS011;50308;47.438;-1.528;2024-01-15T12:11:10;14.65;;;8.93;;
64061;SDS011;50308;47.438;-1.528;2024-01-15T12:13:40;13.88;;;8.88;;
64061;SDS011;50308;47.438;-1.528;2024-01-15T12:16:06;14.77;;;9.88;;
64061;SDS011;50308;47.438;-1.528;2024-01-15T12:18:33;12.02;;;8.40;;
64061;SDS011;50308;47.438;-1.528;2024-01-15T12:20:59;12.88;;;9.00;;
64061;SDS011;50308;47.438;-1.528;2024-01-15T12:23:25;13.73;;;9.00;;
64061;SDS011;50308;47.438;-1.528;2024-01-15T12:25:52;14.25;;;9.30;;
64061;SDS011;50308;47.438;-1.528;2024-01-15T12:28:18;12.05;;;8.45;;
64061;SDS011;50308;47.438;-1.528;2024-01-15T12:30:46;12.52;;;9.10;;
64061;SDS011;50308;47.438;-1.528;2024-01-15T12:33:14;13.60;;;8.77;;
64061;SDS011;50308;47.438;-1.528;2024-01-15T12:35:39;14.27;;;9.43;;
64061;SDS011;50308;47.438;-1.528;2024-01-15T12:38:05;15.38;;;10.23;;
64061;SDS011;50308;47.438;-1.528;2024-01-15T12:40:31;15.57;;;9.10;;
64061;SDS011;50308;47.438;-1.528;2024-01-15T12:42:59;12.35;;;8.90;;
64061;SDS011;50308;47.438;-1.528;2024-01-15T12:45:25;12.80;;;8.98;;
64061;SDS011;50308;47.438;-1.528;2024-01-15T12:47:51;13.82;;;9.55;;
64061;SDS011;50308;47.438;-1.528;2024-01-15T12:50:17;13.93;;;9.25;;
64061;SDS011;50308;47.438;-1.528;2024-01-15T12:52:43;13.38;;;8.93;;
64061;SDS011;50308;47.438;-1.528;2024-01-15T12:55:09;13.30;;;8.82;;
64061;SDS011;50308;47.438;-1.528;2024-01-15T12:57:35;11.63;;;7.78;;
64061;SDS011;50308;47.438;-1.528;2024-01-15T13:00:02;14.75;;;8.50;;
64061;SDS011;50308;47.438;-1.528;2024-01-15T13:02:31;13.73;;;8.45;;
64061;SDS011;50308;47.438;-1.528;2024-01-15T13:04:58;13.02;;;8.73;;
64061;SDS011;50308;47.438;-1.528;2024-01-15T13:07:24;12.57;;;8.60;;
64061;SDS011;50308;47.438;-1.528;2024-01-15T13:09:50;11.30;;;7.88;;
64061;SDS011;50308;47.438;-1.528;2024-01-15T13:12:18;12.70;;;8.15;;
64061;SDS011;50308;47.438;-1.528;2024-01-15T13:14:45;13.38;;;8.07;;
64061;SDS011;50308;47.438;-1.528;2024-01-15T13:17:12;11.43;;;8.00;;
64061;SDS011;50308;47.438;-1.528;2024-01-15T13:19:39;13.25;;;8.07;;
64061;SDS011;50308;47.438;-1.528;2024-01-15T13:22:05;12.23;;;8.45;;
64061;SDS011;50308;47.438;-1.528;2024-01-15T13:24:33;12.13;;;8.48;;
64061;SDS011;50308;47.438;-1.528;2024-01-15T13:26:58;15.75;;;8.75;;
64061;SDS011;50308;47.438;-1.528;2024-01-15T13:29:25;13.93;;;8.32;;
64061;SDS011;50308;47.438;-1.528;2024-01-15T13:31:50;11.50;;;7.43;;
64061;SDS011;50308;47.438;-1.528;2024-01-15T13:34:16;14.45;;;8.25;;
64061;SDS011;50308;47.438;-1.528;2024-01-15T13:36:42;13.25;;;8.27;;
64061;SDS011;50308;47.438;-1.528;2024-01-15T13:39:07;15.02;;;9.00;;
64061;SDS011;50308;47.438;-1.528;2024-01-15T13:41:34;12.32;;;8.43;;
64061;SDS011;50308;47.438;-1.528;2024-01-15T13:44:00;10.65;;;7.47;;
64061;SDS011;50308;47.438;-1.528;2024-01-15T13:46:26;10.65;;;7.78;;
64061;SDS011;50308;47.438;-1.528;2024-01-15T13:48:52;14.30;;;9.02;;
64061;SDS011;50308;47.438;-1.528;2024-01-15T13:51:18;11.57;;;7.60;;
64061;SDS011;50308;47.438;-1.528;2024-01-15T13:53:44;11.38;;;7.18;;
64061;SDS011;50308;47.438;-1.528;2024-01-15T13:56:09;11.75;;;7.60;;
64061;SDS011;50308;47.438;-1.528;2024-01-15T13:58:35;15.02;;;8.30;;
64061;SDS011;50308;47.438;-1.528;2024-01-15T14:01:02;11.98;;;7.18;;
64061;SDS011;50308;47.438;-1.528;2024-01-15T14:03:31;9.75;;;6.80;;
64061;SDS011;50308;47.438;-1.528;2024-01-15T14:05:57;10.73;;;6.90;;
64061;SDS011;50308;47.438;-1.528;2024-01-15T14:08:23;10.98;;;7.03;;
64061;SDS011;50308;47.438;-1.528;2024-01-15T14:10:49;10.48;;;6.82;;
64061;SDS011;50308;47.438;-1.528;2024-01-15T14:13:15;10.85;;;7.10;;
64061;SDS011;50308;47.438;-1.528;2024-01-15T14:15:40;8.88;;;6.38;;
64061;SDS011;50308;47.438;-1.528;2024-01-15T14:18:06;11.32;;;7.18;;
64061;SDS011;50308;47.438;-1.528;2024-01-15T14:20:32;8.57;;;6.30;;